Tiempo atmosférico en la estación meteorológica de Talarn, Lleida (799 m.)



Fecha
DESCASC
Temp. máxima en grados centígrados (hora)
DESCASC
Temp. mínima en grados centígrados (hora)
DESCASC
Temp. media en grados centígrados
DESCASC
Racha de viento máxima en m/sg (hora)
DESCASC
Velocidad máxima media en intervalos de 10 minutos(hora)
DESCASC
Precipitaciones diarias en mm
DESCASC
Precipitaciones de 00:00 a 06:00 en mm
DESCASC
Precipitaciones de 06:00 a 12:00 en mm
DESCASC
Precipitaciones de 12:00 a 18:00 en mm
DESCASC
Precipitaciones de 18:00 a 24:00 en mm
DESCASC
23-10-2019 -- (--) -- (--) -- -- (--) -- (--) -- 33.4 -- -- --
29-10-2019 -- (--) -- (--) -- 3.33 (13:00) 2.5 (19:20) -- 0 0 -- 0
28-10-2019 -- (--) -- (--) -- 3.61 (09:40) 2.78 (09:40) 0 0 0 0 0
26-10-2019 -- (--) -- (--) -- 3.89 (03:20) 3.06 (03:20) 0 0 0 0 0
27-10-2019 -- (--) -- (--) -- 4.17 (12:50) 2.78 (19:40) 0 0 0 0 0
15-11-2019 4.7 (11:10) -2 (-00:0) 1.3 4.44 (11:20) 3.33 (00:10) 0.6 0 0 0.4 0.2
18-10-2019 20.2 (15:30) 9 (00:00) 14.6 4.72 (13:10) 3.33 (13:10) 0.2 0 0.2 0 0
21-10-2019 15.7 (16:00) 5.6 (00:00) 10.6 5 (15:50) 3.61 (22:50) 0 0 0 0 0
25-10-2019 -- (--) -- (--) -- 5 (12:50) 3.06 (09:00) 0 0 0 0 0
01-11-2019 15.9 (16:00) 6.8 (00:00) 11.3 5.28 (21:40) 2.78 (21:40) 8.4 0 0 0 8.4
06-11-2019 13.1 (16:00) 1.1 (00:00) 7.1 5.56 (13:30) 3.61 (13:30) 0 0 0 0 0
31-10-2019 20.6 (15:00) 9.7 (23:30) 15.2 5.83 (15:10) 3.61 (15:00) 5.2 0 0 5.2 0
11-11-2019 10.9 (15:00) 1.3 (07:50) 6.1 6.39 (16:00) 4.17 (18:40) 0 0 0 0 0
13-11-2019 13.3 (15:50) 2.1 (00:00) 7.7 7.78 (17:10) 5.28 (17:10) 0 0 0 0 0
10-11-2019 12 (14:50) 1.7 (00:00) 6.9 7.78 (14:30) 5.28 (14:30) 0.6 0.6 0 0 0
16-11-2019 5.6 (14:00) -3.7 (-00:0) 0.9 8.06 (18:30) 6.11 (18:20) 0 0 0 0 0
14-11-2019 8.5 (15:20) 0.3 (00:00) 4.4 8.33 (14:30) 5.28 (14:00) 7.6 1.4 6.2 0 0
20-10-2019 15.4 (01:40) 7.9 (00:00) 11.6 8.33 (11:50) 4.17 (11:50) 8.2 4.8 2.4 1 0
09-11-2019 12.3 (15:30) -0.7 (-00:0) 5.8 8.89 (16:10) 6.11 (16:10) 0 0 0 0 0
02-11-2019 16.1 (16:00) 10.6 (00:00) 13.4 8.89 (23:59) 5 (16:20) 2.6 0 0.4 0 2.2
07-11-2019 10.4 (16:00) 3.5 (00:00) 6.9 9.44 (19:20) 6.94 (19:20) 2.4 0 0.8 1.6 0
30-10-2019 20.9 (15:40) 8.6 (00:00) 14.8 9.72 (16:50) 5.28 (16:50) 0 0 0 0 0
24-10-2019 -- (--) -- (--) -- 10 (15:20) 7.22 (16:50) 0 0 0 0 0
19-10-2019 22.2 (16:50) 10.3 (00:00) 16.3 10 (16:00) 5.83 (16:00) 0 0 0 0 0
12-11-2019 13.8 (14:20) 0.7 (00:00) 7.3 10.56 (14:50) 8.33 (18:30) 0 0 0 0 0
04-11-2019 16.3 (12:50) 6.4 (00:00) 11.3 13.89 (12:30) 8.89 (12:50) 9.2 0 0.2 0 9
08-11-2019 8.4 (14:10) 0.1 (00:00) 4.2 14.44 (15:50) 8.89 (15:50) 0 0 0 0 0
03-11-2019 15.6 (14:50) 6.2 (00:00) 10.9 16.39 (18:00) 13.06 (18:00) 11.6 5.8 5.8 0 0
05-11-2019 12.1 (12:10) 4 (00:00) 8.1 16.67 (14:40) 11.11 (14:50) 0.2 0.2 0 0 0
22-10-2019 15.7 (19:10) 6.8 (00:00) 11.3 22.5 (19:20) 9.17 (19:20) 76.6 0 3.6 10 63

Gráficas

Temp. máximas Temp. mínimas Temp. medias Precipitaciones Rachas de viento máximas Velocidades máximas media en intervalos de 10 minutos

Datos horarios

Fecha y hora oficial Temperatura (ºC) Velocidad del viento (km/h) Dirección del viento Racha (km/h) Dirección de racha Precipitación (mm) Presión (hPa) Tendencia (hPa) Humedad (%)
2019-11-16 23:00:00 -0.6 5 Noroeste 9 Norte 0 917 0.2 93
2019-11-16 22:00:00 0.3 4 Sudoeste 11 Oeste 0 917.3 0.5 89
2019-11-16 21:00:00 0.8 2 Este 15 Norte 0 917 0.1 84
2019-11-16 20:00:00 2.1 9 Norte 26 Noroeste 0 916.8 0.2 74
2019-11-16 19:00:00 2 15 Noroeste 29 Noroeste 0 916.8 0 77
2019-11-16 18:00:00 2.9 8 Noroeste 22 Oeste 0 916.9 0.1 72
2019-11-16 17:00:00 4.2 8 Sudoeste 18 Sudoeste 0 916.6 -0.4 67
2019-11-16 16:00:00 5.1 14 Sudoeste 24 Sudoeste 0 916.8 -0.7 62
2019-11-16 15:00:00 5.4 6 Sur 14 Sur 0 916.8 -1 69
2019-11-16 14:00:00 5.5 8 Sur 16 Sur 0 917 -1.1 70
2019-11-16 13:00:00 4 8 Sur 14 Sur 0 917.5 -0.3 75
2019-11-16 12:00:00 3.8 7 Sur 14 Sur 0 917.8 0.5 82
2019-11-16 11:00:00 1.2 8 Sur 13 Sur 0 918.1 1.7 85
2019-11-16 10:00:00 1 5 Sur 10 Sur 0 917.8 2.2 85
2019-11-16 09:00:00 -0.5 5 Sur 7 Sur 0 917.3 2.4 92
2019-11-16 08:00:00 -3.2 3 Sudoeste 6 Oeste 0 916.4 2.3 98
2019-11-16 07:00:00 -2.6 4 Sudoeste 8 Sudoeste 0 915.6 2.2 98
2019-11-16 06:00:00 -2.8 4 Sur 7 Noroeste 0 914.9 1.6 96
2019-11-16 05:00:00 -2 3 Sudeste 6 Sur 0 914.1 1.5 91
2019-11-16 04:00:00 -2 4 Oeste 5 Oeste 0 913.4 1.1 94
2019-11-16 03:00:00 -1.4 2 Oeste 10 Norte 0 913.3 1.4 90
2019-11-16 02:00:00 -0.9 3 Sur 7 Sur 0 912.6 1.3 95
2019-11-16 01:00:00 -0.3 4 Oeste 11 Norte 0 912.3 1.6 97
2019-11-16 00:00:00 0.3 4 Sudeste 13 Norte 0 911.9 1.9 91
2019-11-15 23:00:00 0.4 2 Sudoeste 11 Norte 0 911.3 1.9 92
2019-11-15 22:00:00 0.1 8 Norte 10 Norte 0 910.7 1.9 93
2019-11-15 21:00:00 0.7 6 Norte 11 Nordeste 0 910 1.8 96
2019-11-15 20:00:00 1.7 7 Oeste 9 Oeste 0.2 909.4 1.7 98
2019-11-15 19:00:00 2 4 Sudoeste 9 Sur 0 908.8 1.7 98
2019-11-15 18:00:00 2.2 7 Sur 13 Noroeste 0 908.2 1.3 96
2019-11-15 17:00:00 2.2 3 Nordeste 12 Sur 0.2 907.7 0.5 96
2019-11-15 16:00:00 2.5 8 Sur 14 Sur 0.2 907.1 -0.2 92
2019-11-15 15:00:00 3 6 Sudoeste 12 Sudoeste 0 906.9 -0.9 87
2019-11-15 14:00:00 2.9 4 Sudoeste 10 Sur 0 907.2 -0.8 79
2019-11-15 13:00:00 2.9 5 Sur 10 Sudeste 0 907.3 -0.3 74
2019-11-15 12:00:00 3 6 Sur 16 Sur 0 907.8 0.2 76
2019-11-15 11:00:00 4.3 8 Sur 13 Sur 0 908 0.9 77
2019-11-15 10:00:00 2 5 Sur 9 Sudeste 0 907.6 0.8 89
2019-11-15 09:00:00 0.8 2 Este 6 Sudeste 0 907.6 1 94
2019-11-15 08:00:00 -1.4 3 Sudoeste 7 Nordeste 0 907.1 0.7 95
2019-11-15 07:00:00 -1.1 3 Norte 8 Norte 0 906.8 0.3 96
2019-11-15 06:00:00 -0.9 0 Calma 4 Sur 0 906.6 0.2 94
2019-11-15 05:00:00 0 4 Sudoeste 7 Noroeste 0 906.4 0.3 90
2019-11-15 04:00:00 0 3 Sudeste 7 Oeste 0 906.5 0.6 90
2019-11-15 03:00:00 -0.6 5 Noroeste 10 Oeste 0 906.4 0.9 91
2019-11-15 02:00:00 0.2 5 Oeste 14 Oeste 0 906.1 0.6 86
2019-11-15 01:00:00 -0.2 9 Oeste 14 Norte 0 905.9 0.9 93
2019-11-15 00:00:00 0.8 11 Norte 13 Norte 0 905.5 0.9 78
2019-11-14 23:00:00 0.7 9 Noroeste 11 Noroeste 0 905.5 0.9 80
2019-11-14 22:00:00 1.5 6 Oeste 15 Norte 0 905 0.5 79
2019-11-14 21:00:00 1.2 6 Norte 14 Norte 0 904.6 0.4 74
2019-11-14 20:00:00 2.8 8 Norte 26 Noroeste 0 904.6 0.9 65
2019-11-14 19:00:00 3.2 15 Noroeste 24 Oeste 0 904.5 1 66
2019-11-14 18:00:00 4.2 6 Oeste 18 Sudoeste 0 904.2 0.8 69
2019-11-14 17:00:00 5.8 14 Oeste 25 Oeste 0 903.7 0 63
2019-11-14 16:00:00 6 12 Oeste 27 Sudoeste 0 903.5 -0.7 64
2019-11-14 15:00:00 7.8 5 Sudoeste 30 Oeste 0 903.4 -1.7 68
2019-11-14 14:00:00 5.2 19 Oeste 28 Oeste 0 903.7 -2.1 86
2019-11-14 13:00:00 4.4 3 Norte 15 Norte 0 904.2 -2.1 87
2019-11-14 12:00:00 3.9 7 Norte 18 Nordeste 0 905.1 -1.5 93
2019-11-14 11:00:00 4.6 6 Sudeste 22 Oeste 0.4 905.8 -1.4 95
2019-11-14 10:00:00 4.1 6 Sudoeste 19 Oeste 2 906.3 -1.4 98
2019-11-14 09:00:00 4.2 2 Nordeste 7 Nordeste 1 906.6 -1.6 97
2019-11-14 08:00:00 4.1 5 Sur 17 Oeste 1.4 907.2 -2 94
2019-11-14 07:00:00 4.6 5 Oeste 13 Oeste 1.4 907.7 -2.5 95
2019-11-14 06:00:00 4.2 6 Norte 9 Nordeste 0.8 908.2 -3.2 93
2019-11-14 05:00:00 4.2 7 Norte 11 Nordeste 0.4 909.2 -3.1 89
2019-11-14 04:00:00 4.3 5 Nordeste 16 Norte 0.2 910.2 -3 86
2019-11-14 03:00:00 4.4 4 Noroeste 7 Norte 0 911.4 -2 86
2019-11-14 02:00:00 4.7 5 Norte 9 Nordeste 0 912.3 -1.9 79
2019-11-14 01:00:00 4.7 4 Nordeste 11 Nordeste 0 913.2 -1.6 76
2019-11-14 00:00:00 4.2 6 Norte 9 Nordeste 0 913.4 -1.6 77
2019-11-13 23:00:00 4.4 3 Nordeste 10 Oeste 0 914.2 -1.3 71
2019-11-13 22:00:00 5.1 6 Sudeste 20 Norte 0 914.8 -0.4 76
2019-11-13 21:00:00 4.8 13 Norte 17 Norte 0 915 0.2 79
2019-11-13 20:00:00 6.2 5 Este 13 Norte 0 915.5 1 80
2019-11-13 19:00:00 7.5 7 Norte 17 Norte 0 915.2 1.2 70
2019-11-13 18:00:00 9 11 Oeste 28 Oeste 0 914.8 1.1 69
2019-11-13 17:00:00 10.4 15 Oeste 28 Oeste 0 914.5 0.6 60
2019-11-13 16:00:00 12.5 11 Sur 28 Sudoeste 0 914 -0.4 49
2019-11-13 15:00:00 12 10 Sudoeste 15 Sudoeste 0 913.7 -0.9 50
2019-11-13 14:00:00 10.6 8 Sur 15 Sur 0 913.9 -0.5 52
2019-11-13 13:00:00 9.2 9 Sur 15 Sur 0 914.4 0.8 62
2019-11-13 12:00:00 8.6 7 Sur 12 Sudeste 0 914.6 2.2 67
2019-11-13 11:00:00 4.7 2 Este 8 Sur 0 914.4 2.8 85
2019-11-13 10:00:00 4.6 3 Norte 8 Noroeste 0 913.6 2.4 83
2019-11-13 09:00:00 2.9 5 Noroeste 7 Noroeste 0 912.4 1.4 90
2019-11-13 08:00:00 3 3 Sudoeste 8 Norte 0 911.6 0.5 82
2019-11-13 07:00:00 2.9 0 Calma 8 Nordeste 0 911.2 -0.2 80
2019-11-13 06:00:00 2.5 0 Calma 8 Norte 0 911 -0.8 87
2019-11-13 05:00:00 3 4 Sur 12 Norte 0 911.1 -1.1 85
2019-11-13 04:00:00 2.5 5 Noroeste 9 Norte 0 911.4 -1.2 83
2019-11-13 03:00:00 2.9 3 Norte 6 Noroeste 0 911.8 -1.6 82
2019-11-13 02:00:00 2.2 5 Norte 6 Norte 0 912.2 -1.5 83
2019-11-13 01:00:00 3.2 4 Norte 10 Noroeste 0 912.6 -1.3 83
2019-11-13 00:00:00 4.1 7 Noroeste 10 Oeste 0 913.4 -0.5 78
2019-11-12 23:00:00 5.7 5 Oeste 9 Norte 0 913.7 -0.1 74
2019-11-12 22:00:00 5.4 8 Norte 17 Noroeste 0 913.9 0 73
2019-11-12 21:00:00 4.8 13 Norte 17 Norte 0 913.9 0.2 77
2019-11-12 20:00:00 6.8 5 Este 17 Sudeste 0 913.8 -0.2 68
2019-11-12 19:00:00 8.1 8 Nordeste 35 Oeste 0 913.9 -0.3 60
2019-11-12 18:00:00 9 23 Oeste 29 Oeste 0 913.7 -1 61
2019-11-12 17:00:00 11.4 17 Sudoeste 28 Sudoeste 0 914 -1.5 51
2019-11-12 16:00:00 12.7 21 Oeste 35 Sudoeste 0 914.2 -1.9 41
2019-11-12 15:00:00 12.8 25 Oeste 38 Sudoeste 0 914.7 -2.5 34
2019-11-12 14:00:00 13.4 7 Sur 21 Noroeste 0 915.5 -2.1 35
2019-11-12 13:00:00 12.2 5 Sur 14 Sur 0 916.1 -1.6 37
2019-11-12 12:00:00 10.4 5 Sudeste 13 Sur 0 917.2 -0.6 39
2019-11-12 11:00:00 8 9 Sur 14 Sur 0 917.6 -0.2 62
2019-11-12 10:00:00 5.6 5 Sudoeste 9 Sudoeste 0 917.7 -0.2 67
2019-11-12 09:00:00 5 3 Oeste 8 Noroeste 0 917.8 -0.2 61
2019-11-12 08:00:00 1.9 2 Noroeste 5 Noroeste 0 917.8 0.1 64
2019-11-12 07:00:00 0.8 3 Noroeste 10 Noroeste 0 917.9 -0.2 69
2019-11-12 06:00:00 2.1 5 Sudoeste 10 Sudoeste 0 918 0.2 67
2019-11-12 05:00:00 2.2 6 Sudoeste 11 Noroeste 0 917.7 -0.2 69
2019-11-12 04:00:00 2.8 3 Oeste 13 Noroeste 0 918.1 -0.2 58
2019-11-12 03:00:00 2.5 7 Norte 12 Noroeste 0 917.8 -0.6 60
2019-11-12 02:00:00 3.8 2 Oeste 11 Norte 0 917.9 -0.5 61
2019-11-12 01:00:00 4.3 2 Sudoeste 16 Noroeste 0 918.3 -0.1 61
2019-11-12 00:00:00 5.6 4 Oeste 10 Noroeste 0 918.4 0.4 49
2019-11-11 23:00:00 5.5 4 Oeste 9 Nordeste 0 918.4 0.5 51
2019-11-11 22:00:00 4.5 7 Norte 11 Norte 0 918.4 1.1 56
2019-11-11 21:00:00 5.2 5 Noroeste 11 Norte 0 918 1 53
2019-11-11 20:00:00 6 3 Sudoeste 13 Norte 0 917.9 1 53
2019-11-11 19:00:00 6.2 13 Norte 17 Norte 0 917.3 0.6 50
2019-11-11 18:00:00 5.8 9 Norte 14 Norte 0 917 0.6 56
2019-11-11 17:00:00 7.9 6 Este 21 Oeste 0 916.9 0.1 52
2019-11-11 16:00:00 9.1 14 Sudoeste 23 Sudoeste 0 916.7 -0.8 39
2019-11-11 15:00:00 10.5 9 Sur 16 Sudoeste 0 916.4 -2 36
2019-11-11 14:00:00 9.7 9 Sur 16 Sur 0 916.8 -2.2 37
2019-11-11 13:00:00 9 4 Sur 14 Sur 0 917.5 -1.7 47
2019-11-11 12:00:00 7.9 5 Sur 13 Sur 0 918.4 -0.9 46
2019-11-11 11:00:00 6.5 3 Sur 10 Sur 0 919 0.2 42
2019-11-11 10:00:00 3.8 3 Sur 6 Norte 0 919.2 0.6 58
2019-11-11 09:00:00 2.2 3 Noroeste 6 Sudeste 0 919.3 0.5 57
2019-11-11 08:00:00 1.5 2 Noroeste 7 Sudoeste 0 918.8 0 55
2019-11-11 07:00:00 1.8 3 Sudoeste 8 Noroeste 0 918.6 -0.2 54
2019-11-11 06:00:00 1.8 5 Sudoeste 16 Noroeste 0 918.8 -0.2 56
2019-11-11 05:00:00 2.6 7 Norte 14 Norte 0 918.8 -0.5 44
2019-11-11 04:00:00 2.8 6 Noroeste 15 Noroeste 0 918.8 -0.8 48
2019-11-11 03:00:00 2.6 13 Noroeste 15 Noroeste 0 919 0.6 47
2019-11-11 02:00:00 3 3 Norte 17 Norte 0 919.3 0.4 46
2019-11-11 01:00:00 2.6 12 Noroeste 17 Norte 0 919.6 1.2 51
2019-11-11 00:00:00 3 15 Norte 21 Norte 0 918.4 0.5 51
2019-11-10 23:00:00 3.8 13 Norte 20 Norte 0 918.9 1.4 50
2019-11-10 22:00:00 3.2 13 Norte 18 Noroeste 0 918.4 1.2 53
2019-11-10 21:00:00 4.3 12 Norte 19 Nordeste 0 917.9 1.8 50
2019-11-10 20:00:00 4.6 8 Norte 12 Nordeste 0 917.5 2 48
2019-11-10 19:00:00 5.3 8 Noroeste 22 Nordeste 0 917.2 2.2 47
2019-11-10 18:00:00 6.3 12 Norte 16 Norte 0 916.1 1.4 46
2019-11-10 17:00:00 9 3 Noroeste 14 Sudeste 0 915.5 0.5 48
2019-11-10 16:00:00 9.7 8 Sudeste 25 Sudoeste 0 915 -0.5 43
2019-11-10 15:00:00 11.9 15 Sur 28 Sur 0 914.7 -1.8 39
2019-11-10 14:00:00 9.8 13 Sur 24 Sur 0 915 -1.7 44
2019-11-10 13:00:00 10.4 12 Sur 19 Sur 0 915.5 -1 48
2019-11-10 12:00:00 9.3 11 Sur 17 Sur 0 916.5 0.3 53
2019-11-10 11:00:00 8 6 Sur 15 Sur 0 916.7 0.8 70
2019-11-10 10:00:00 5.1 4 Sur 14 Sur 0 916.5 1.1 87
2019-11-10 09:00:00 3.7 4 Norte 12 Sur 0 916.2 0.5 97
2019-11-10 08:00:00 1.8 5 Nordeste 9 Sur 0 915.9 0.4 90
2019-11-10 07:00:00 2.7 3 Sudoeste 15 Noroeste 0 915.4 -0.4 95
2019-11-10 06:00:00 3.3 3 Sudoeste 9 Norte 0 915.7 0 96
2019-11-10 05:00:00 3 3 Sudoeste 9 Sudoeste 0 915.5 0 93
2019-11-10 04:00:00 4.2 3 Sudoeste 14 Noroeste 0 915.8 -0.7 87
2019-11-10 03:00:00 4.1 4 Oeste 14 Oeste 0 915.7 -1.1 88
2019-11-10 02:00:00 4.9 4 Sudoeste 14 Nordeste 0 915.5 -1.1 88
2019-11-10 01:00:00 4.8 9 Nordeste 14 Norte 0.6 916.5 -0.5 91
2019-11-10 00:00:00 5.4 2 Norte 17 Noroeste 0 916.8 -0.7 81
2019-11-09 23:00:00 5.8 13 Noroeste 19 Noroeste 0 916.6 -1.9 75
2019-11-09 22:00:00 6 11 Norte 19 Norte 0 917 -1.8 74
2019-11-09 21:00:00 6.7 15 Oeste 28 Oeste 0 917.5 -1.4 71
2019-11-09 20:00:00 6.9 4 Sur 20 Oeste 0 918.5 -0.3 72
2019-11-09 19:00:00 7.2 7 Oeste 19 Oeste 0 918.8 -0.3 68
2019-11-09 18:00:00 7.7 14 Oeste 25 Oeste 0 918.9 -0.8 64
2019-11-09 17:00:00 8.3 11 Sudoeste 32 Oeste 0 918.8 -1.4 60
2019-11-09 16:00:00 11.3 19 Sudoeste 30 Sudoeste 0 919.1 -1.6 50
2019-11-09 15:00:00 11.8 14 Sudoeste 23 Sudoeste 0 919.7 -1.8 47
2019-11-09 14:00:00 9.3 10 Sur 16 Sur 0 920.2 -1.7 58
2019-11-09 13:00:00 8.8 7 Sudoeste 17 Sur 0 920.7 -1.2 60
2019-11-09 12:00:00 8.1 8 Sur 19 Sur 0 921.5 -0.3 64
2019-11-09 11:00:00 7.3 5 Sur 12 Sur 0 921.9 0.8 69
2019-11-09 10:00:00 4.9 4 Sur 9 Sur 0 921.9 1.1 75
2019-11-09 09:00:00 3.4 7 Norte 12 Norte 0 921.8 1.7 79
2019-11-09 08:00:00 0.8 4 Sudoeste 8 Oeste 0 921.1 1.3 88
2019-11-09 07:00:00 0.2 3 Sudeste 8 Norte 0 920.8 1.5 92
2019-11-09 06:00:00 -0.1 3 Noroeste 16 Norte 0 920.1 0.9 86
2019-11-09 05:00:00 0.4 4 Sur 16 Norte 0 919.8 0.8 87
2019-11-09 04:00:00 0.8 10 Norte 15 Norte 0 919.3 0.3 83
2019-11-09 03:00:00 1.2 6 Noroeste 11 Noroeste 0 919.2 0.3 82
2019-11-09 02:00:00 1.6 7 Nordeste 14 Norte 0 919 0.6 81
2019-11-09 01:00:00 1.9 8 Norte 14 Norte 0 919 0.8 79
2019-11-09 00:00:00 1.7 3 Noroeste 12 Norte 0 918.9 1.3 83
2019-11-08 23:00:00 1.5 2 Nordeste 15 Norte 0 918.4 1.3 81
2019-11-08 22:00:00 2.8 7 Norte 22 Noroeste 0 918.2 2.1 77
2019-11-08 21:00:00 3.6 10 Noroeste 22 Noroeste 0 917.6 2.1 75
2019-11-08 20:00:00 3.4 5 Noroeste 25 Norte 0 917.1 2.3 73
2019-11-08 19:00:00 4.1 17 Norte 29 Noroeste 0 916.1 2.6 71
2019-11-08 18:00:00 4.6 19 Noroeste 28 Noroeste 0 915.5 2.2 69
2019-11-08 17:00:00 5.9 14 Noroeste 41 Noroeste 0 914.8 1.4 63
2019-11-08 16:00:00 6.6 32 Noroeste 52 Noroeste 0 913.5 -0.4 60
2019-11-08 15:00:00 6.8 19 Oeste 41 Oeste 0 913.3 -1.2 58
2019-11-08 14:00:00 8.1 17 Noroeste 26 Oeste 0 913.4 -1.3 57
2019-11-08 13:00:00 6.3 5 Norte 23 Norte 0 913.9 -0.6 64
2019-11-08 12:00:00 6.3 12 Noroeste 22 Noroeste 0 914.5 0.4 62
2019-11-08 11:00:00 4.7 8 Sur 12 Sur 0 914.7 1 76
2019-11-08 10:00:00 3.3 3 Sur 8 Sur 0 914.5 1.1 81
2019-11-08 09:00:00 2.8 4 Sur 8 Oeste 0 914.1 0.8 82
2019-11-08 08:00:00 1.8 3 Oeste 14 Noroeste 0 913.7 1 84
2019-11-08 07:00:00 0.2 5 Norte 12 Noroeste 0 913.4 0.9 90
2019-11-08 06:00:00 1.6 6 Sudeste 19 Noroeste 0 913.3 0.8 84
2019-11-08 05:00:00 1.4 3 Sur 25 Noroeste 0 912.7 0.1 87
2019-11-08 04:00:00 2.6 13 Norte 25 Noroeste 0 912.5 -0.1 74
2019-11-08 03:00:00 2.3 10 Noroeste 15 Noroeste 0 912.5 -0.5 79
2019-11-08 02:00:00 3.2 9 Norte 22 Norte 0 912.6 -1.1 75
2019-11-08 01:00:00 3.7 12 Noroeste 20 Noroeste 0 912.6 -1.3 74
2019-11-08 00:00:00 3.9 13 Oeste 21 Oeste 0 913 -0.9 75
2019-11-07 23:00:00 4.2 6 Sudoeste 16 Oeste 0 913.7 -0.1 73
2019-11-07 22:00:00 4.9 6 Oeste 14 Oeste 0 913.9 0.3 66
2019-11-07 21:00:00 3.5 4 Este 9 Norte 0 913.9 0.3 74
2019-11-07 20:00:00 4.8 4 Este 34 Oeste 0 913.8 0.6 68
2019-11-07 19:00:00 6.2 20 Oeste 28 Oeste 0 913.6 0.3 61
2019-11-07 18:00:00 6.4 11 Noroeste 26 Oeste 0 913.6 -0.1 67
2019-11-07 17:00:00 8.4 21 Oeste 33 Oeste 0 913.2 -0.8 65
2019-11-07 16:00:00 10.4 8 Sudoeste 22 Sudoeste 0 913.3 -1 72
2019-11-07 15:00:00 8.5 8 Sudeste 17 Oeste 1.6 913.7 -1.1 93
2019-11-07 14:00:00 7.1 3 Sudoeste 12 Sur 0 914 -0.9 95
2019-11-07 13:00:00 6.6 8 Sur 13 Sur 0 914.3 -0.6 96
2019-11-07 12:00:00 6.4 2 Sur 10 Sur 0.4 914.8 0 95
2019-11-07 11:00:00 6.5 7 Sur 9 Sur 0.2 914.9 0.2 94
2019-11-07 10:00:00 5.7 5 Oeste 8 Noroeste 0.2 914.9 0.1 94
2019-11-07 09:00:00 5.2 4 Sudoeste 9 Sur 0 914.8 -0.3 93
2019-11-07 08:00:00 5.1 3 Sur 9 Norte 0 914.7 -0.8 91
2019-11-07 07:00:00 5 3 Noroeste 6 Norte 0 914.8 -0.9 91
2019-11-07 06:00:00 4.9 3 Norte 6 Norte 0 915.1 -1 88
2019-11-07 05:00:00 4.9 2 Sur 5 Nordeste 0 915.5 -1.2 87
2019-11-07 04:00:00 4.6 6 Norte 8 Norte 0 915.7 -1.7 87
2019-11-07 03:00:00 5.3 2 Sudoeste 10 Norte 0 916.1 -1.2 87
2019-11-07 02:00:00 4.4 7 Norte 8 Norte 0 916.7 -0.8 86
2019-11-07 01:00:00 5.4 2 Sudoeste 8 Sudoeste 0 917.4 -0.5 85
2019-11-07 00:00:00 5.5 4 Sudoeste 6 Sur 0 917.3 -0.6 86
2019-11-06 23:00:00 6.3 3 Sudoeste 7 Sur 0 917.5 -0.2 82
2019-11-06 22:00:00 7 2 Sudoeste 9 Norte 0 917.9 0.3 77
2019-11-06 21:00:00 7 3 Sudoeste 7 Nordeste 0 917.9 0.6 77
2019-11-06 20:00:00 7.4 4 Nordeste 9 Norte 0 917.7 0.6 71
2019-11-06 19:00:00 8.1 7 Norte 12 Norte 0 917.6 0.3 72
2019-11-06 18:00:00 8.3 6 Norte 8 Norte 0 917.3 -0.2 74
2019-11-06 17:00:00 12.2 2 Sudeste 13 Sur 0 917.1 -0.8 59
2019-11-06 16:00:00 13 9 Sur 16 Sur 0 917.3 -0.8 56
2019-11-06 15:00:00 12.2 3 Este 17 Sur 0 917.5 -1.3 57
2019-11-06 14:00:00 12.4 4 Sudeste 20 Sur 0 917.9 -0.9 57
2019-11-06 13:00:00 11.2 7 Sudeste 18 Sur 0 918.1 -0.3 59
2019-11-06 12:00:00 9.7 6 Sudeste 16 Sur 0 918.8 0.7 64
2019-11-06 11:00:00 8.6 10 Sur 15 Sur 0 918.8 1.3 69
2019-11-06 10:00:00 6.8 7 Sur 13 Sudoeste 0 918.4 1.8 75
2019-11-06 09:00:00 5.5 3 Sudeste 8 Sur 0 918.1 1.7 83
2019-11-06 08:00:00 2.2 4 Noroeste 7 Noroeste 0 917.5 1.5 89
2019-11-06 07:00:00 1.4 7 Norte 12 Noroeste 0 916.6 0.9 90
2019-11-06 06:00:00 2.4 3 Oeste 10 Nordeste 0 916.4 0.7 89
2019-11-06 05:00:00 1.9 9 Norte 12 Norte 0 916 0.6 91
2019-11-06 04:00:00 2.4 7 Oeste 10 Oeste 0 915.7 0.1 88
2019-11-06 03:00:00 2.3 3 Nordeste 8 Sudoeste 0 915.7 0.6 90
2019-11-06 02:00:00 2.6 4 Sudeste 9 Nordeste 0 915.4 0.5 88
2019-11-06 01:00:00 2.9 4 Norte 9 Nordeste 0 915.6 1.4 87
2019-11-06 00:00:00 4.2 4 Sudoeste 21 Norte 0 915.1 1.4 80
2019-11-05 23:00:00 4.1 10 Norte 14 Noroeste 0 914.9 1.4 79
2019-11-05 22:00:00 5.6 7 Norte 24 Noroeste 0 914.2 1 71
2019-11-05 21:00:00 6.3 18 Noroeste 30 Noroeste 0 913.7 1.7 69
2019-11-05 20:00:00 6.4 8 Sudoeste 16 Sudoeste 0 913.5 2 71
2019-11-05 19:00:00 7.2 13 Noroeste 33 Oeste 0 913.2 2.4 66
2019-11-05 18:00:00 7.8 19 Oeste 35 Oeste 0 912 1 64
2019-11-05 17:00:00 9.2 21 Noroeste 54 Oeste 0 911.5 0.4 56
2019-11-05 16:00:00 10.4 35 Oeste 57 Oeste 0 910.8 -1.1 53
2019-11-05 15:00:00 11.1 38 Oeste 60 Oeste 0 911 -1 50
2019-11-05 14:00:00 10.6 30 Oeste 52 Oeste 0 911.1 -0.9 57
2019-11-05 13:00:00 11.5 21 Oeste 49 Oeste 0 911.9 -0.1 50
2019-11-05 12:00:00 11.3 24 Sudoeste 44 Oeste 0 912 0.2 52
2019-11-05 11:00:00 10.5 14 Sudoeste 26 Oeste 0 912 1.2 59
2019-11-05 10:00:00 8.5 8 Oeste 28 Noroeste 0 912 1.3 62
2019-11-05 09:00:00 8.8 9 Este 20 Este 0 911.8 1.2 61
2019-11-05 08:00:00 6.6 10 Este 41 Noroeste 0 910.8 0.6 68
2019-11-05 07:00:00 6.9 18 Oeste 35 Oeste 0 910.7 0.2 64
2019-11-05 06:00:00 6.7 14 Oeste 31 Noroeste 0 910.6 -0.1 70
2019-11-05 05:00:00 7.2 22 Oeste 33 Oeste 0 910.2 -0.2 71
2019-11-05 04:00:00 7.4 15 Noroeste 34 Oeste 0 910.5 -0.2 73
2019-11-05 03:00:00 9 26 Oeste 39 Oeste 0 910.7 -0.1 77
2019-11-05 02:00:00 9.4 25 Oeste 37 Oeste 0 910.4 -0.7 81
2019-11-05 01:00:00 9.6 19 Oeste 36 Oeste 0.2 910.7 -0.2 89
2019-11-05 00:00:00 9.8 18 Sudoeste 25 Sudoeste 0 910.8 -0.7 89
2019-11-04 23:00:00 10.2 13 Sudoeste 23 Sudoeste 1.6 911.1 -0.2 96
2019-11-04 22:00:00 10.5 4 Sur 29 Oeste 0.4 910.9 -0.3 95
2019-11-04 21:00:00 10.9 26 Oeste 46 Noroeste 2.8 911.5 0.4 82
2019-11-04 20:00:00 11.5 20 Oeste 31 Oeste 3.6 911.3 -0.1 86
2019-11-04 19:00:00 12 16 Oeste 31 Oeste 0.6 911.2 -0.7 83
2019-11-04 18:00:00 13.6 16 Oeste 31 Sudoeste 0 911.1 -1 69
2019-11-04 17:00:00 14.4 11 Sudoeste 33 Oeste 0 911.4 -1.1 63
2019-11-04 16:00:00 14.6 22 Oeste 32 Sudoeste 0 911.9 -1.1 63
2019-11-04 15:00:00 15 19 Oeste 49 Sudoeste 0 912.1 -1.8 59
2019-11-04 14:00:00 14.9 18 Oeste 44 Oeste 0 912.5 -1.9 59
2019-11-04 13:00:00 15.4 29 Oeste 50 Sudoeste 0 913 -1.6 58
2019-11-04 12:00:00 11.9 4 Sur 19 Sudeste 0 913.9 -0.7 75
2019-11-04 11:00:00 11.9 6 Sur 16 Sudoeste 0 914.4 -0.2 73
2019-11-04 10:00:00 10.8 4 Sur 9 Sudoeste 0 914.6 0.5 79
2019-11-04 09:00:00 8.5 4 Sudeste 9 Norte 0.2 914.6 -0.1 87
2019-11-04 08:00:00 7.4 4 Sudoeste 9 Noroeste 0 914.6 0.1 87
2019-11-04 07:00:00 7.7 4 Norte 10 Noroeste 0 914.1 -0.8 80
2019-11-04 06:00:00 7.8 4 Sur 11 Noroeste 0 914.7 -0.4 77
2019-11-04 05:00:00 8 2 Sudoeste 6 Noroeste 0 914.5 -0.7 76
2019-11-04 04:00:00 7.8 5 Sudoeste 14 Oeste 0 914.9 -0.2 73
2019-11-04 03:00:00 7.7 5 Sudoeste 16 Oeste 0 915.1 -0.2 71
2019-11-04 02:00:00 6.8 2 Noroeste 11 Oeste 0 915.2 0 74
2019-11-04 01:00:00 7.1 8 Noroeste 12 Oeste 0 915.1 0.3 70
2019-11-04 00:00:00 6.8 3 Norte 8 Norte 0 915.3 1.7 70
2019-11-03 23:00:00 7.5 5 Sudoeste 8 Oeste 0 915.2 1.5 65
2019-11-03 22:00:00 8 5 Sur 10 Noroeste 0 914.8 1.9 62
2019-11-03 21:00:00 8.7 9 Este 20 Oeste 0 913.6 2.9 60
2019-11-03 20:00:00 8.7 5 Norte 22 Oeste 0 913.7 3.8 61
2019-11-03 19:00:00 9.7 12 Noroeste 53 Oeste 0 912.9 4 60
2019-11-03 18:00:00 10.3 47 Oeste 59 Oeste 0 910.7 2.9 58
2019-11-03 17:00:00 12.2 33 Oeste 51 Oeste 0 909.9 2.8 55
2019-11-03 16:00:00 14.5 28 Oeste 46 Oeste 0 908.9 2.6 46
2019-11-03 15:00:00 15.4 24 Oeste 40 Sudoeste 0 907.8 1.9 46
2019-11-03 14:00:00 15.1 26 Oeste 48 Sudoeste 0 907.1 1.9 50
2019-11-03 13:00:00 14.1 25 Oeste 39 Sudoeste 0 906.3 2.6 52
2019-11-03 12:00:00 13.3 22 Noroeste 35 Oeste 0 905.9 3.2 55
2019-11-03 11:00:00 12.1 7 Oeste 26 Norte 0 905.2 2.6 65
2019-11-03 10:00:00 11.2 12 Sur 53 Oeste 0 903.7 0.1 78
2019-11-03 09:00:00 10.1 29 Oeste 44 Sudoeste 3.4 902.7 -1.6 87
2019-11-03 08:00:00 9.7 7 Sudoeste 29 Oeste 2.2 902.6 -2.2 91
2019-11-03 07:00:00 10.4 15 Oeste 30 Oeste 0.2 903.6 -2.3 84
2019-11-03 06:00:00 11.1 24 Oeste 36 Oeste 0 904.3 -2.6 76
2019-11-03 05:00:00 11 11 Sudoeste 34 Oeste 0 904.8 -2.9 79
2019-11-03 04:00:00 11 7 Oeste 33 Oeste 0 905.9 -2.7 79
2019-11-03 03:00:00 11.2 23 Oeste 40 Sudoeste 0 906.9 -2.2 78
2019-11-03 02:00:00 11.9 15 Sudoeste 37 Oeste 0.2 907.7 -2 84
2019-11-03 01:00:00 12 17 Oeste 53 Oeste 5.6 908.6 -1.9 84
2019-11-03 00:00:00 12.8 16 Oeste 32 Sudoeste 2 909.1 -2.2 89
2019-11-02 23:00:00 13.1 5 Oeste 12 Sudoeste 0.2 909.7 -2.2 88
2019-11-02 22:00:00 13.5 9 Sudoeste 18 Sudoeste 0 910.5 -1.7 83
2019-11-02 21:00:00 13.6 10 Sudoeste 14 Sudoeste 0 911.3 -1 84
2019-11-02 20:00:00 13.7 10 Sudoeste 16 Sudoeste 0 911.9 -0.7 84
2019-11-02 19:00:00 14.4 10 Sudoeste 24 Sudoeste 0 912.2 -0.7 79
2019-11-02 18:00:00 14.7 14 Sudoeste 19 Sudoeste 0 912.3 -0.8 78
2019-11-02 17:00:00 15.4 12 Oeste 28 Sudoeste 0 912.6 -1.5 74
2019-11-02 16:00:00 15.8 12 Sudoeste 28 Oeste 0 912.9 -2.1 75
2019-11-02 15:00:00 15.2 15 Sudoeste 24 Sudoeste 0 913.1 -2.8 81
2019-11-02 14:00:00 14 4 Sur 10 Sur 0 914.1 -2.5 93
2019-11-02 13:00:00 13.2 4 Sur 9 Sur 0 915 -1.8 95
2019-11-02 12:00:00 13 4 Sur 8 Sur 0 915.9 -1.3 97
2019-11-02 11:00:00 11.5 4 Sudoeste 9 Sur 0 916.6 -0.5 100
2019-11-02 10:00:00 11.9 5 Sur 8 Sur 0 916.8 -0.3 100
2019-11-02 09:00:00 11.7 2 Sudeste 5 Noroeste 0 917.2 -0.3 100
2019-11-02 08:00:00 10.7 3 Sur 6 Sur 0 917.1 -0.6 100
2019-11-02 07:00:00 10.8 3 Oeste 7 Sur 0.4 917.1 -0.7 100
2019-11-02 06:00:00 11.4 3 Sudeste 11 Sudoeste 0 917.5 -0.8 100
2019-11-02 05:00:00 11.5 4 Oeste 9 Sur 0 917.7 -1.1 100
2019-11-02 04:00:00 11.8 0 Calma 6 Sudoeste 0 917.8 -1.4 99
2019-11-02 03:00:00 11.7 4 Noroeste 6 Norte 0 918.3 -1.2 99
2019-11-02 02:00:00 11.8 3 Sur 10 Nordeste 0 918.8 -1.2 98
2019-11-02 01:00:00 12.1 3 Sudeste 13 Nordeste 0 919.2 -0.9 98
2019-11-02 00:00:00 11.8 3 Sudoeste 17 Norte 2.4 919.5 -0.9 97
2019-11-01 23:00:00 11.9 5 Noroeste 14 Norte 4 920 -1.1 95
2019-11-01 22:00:00 12.1 4 Sur 19 Norte 1.6 920.1 -1.7 96
2019-11-01 21:00:00 12.4 5 Sudoeste 8 Oeste 0.4 920.4 -1.4 89
2019-11-01 20:00:00 13.3 3 Oeste 7 Norte 0 921.1 -0.9 79
2019-11-01 19:00:00 13.4 0 Calma 7 Norte 0 921.8 -0.3 73
2019-11-01 18:00:00 13.1 4 Nordeste 7 Norte 0 921.8 -0.7 77
2019-11-01 17:00:00 14.2 2 Norte 12 Sur 0 922 -1.3 68
2019-11-01 16:00:00 15.6 3 Este 9 Sur 0 922.1 -1.8 64
2019-11-01 15:00:00 14.5 3 Sur 9 Sudoeste 0 922.5 -2.3 67
2019-11-01 14:00:00 14.3 2 Sudoeste 11 Sur 0 923.3 -2.1 68
2019-11-01 13:00:00 13.9 4 Sudeste 14 Sur 0 923.9 -1.9 73
2019-11-01 12:00:00 12.7 4 Sur 10 Sur 0 924.8 -0.8 80
2019-11-01 11:00:00 11.8 5 Sur 11 Sur 0 925.4 -0.2 87
2019-11-01 10:00:00 11.1 4 Sudoeste 7 Sur 0 925.8 0.3 80
2019-11-01 09:00:00 10.4 3 Sur 6 Sudeste 0 925.6 0 83
2019-11-01 08:00:00 8.1 3 Oeste 8 Norte 0 925.6 -0.2 92
2019-11-01 07:00:00 7.5 3 Noroeste 8 Este 0 925.5 -0.4 93
2019-11-01 06:00:00 8.3 3 Sudoeste 7 Sudoeste 0 925.6 -1.1 93
2019-11-01 05:00:00 8.4 6 Norte 10 Norte 0 925.8 -0.9 89
2019-11-01 04:00:00 8.7 4 Sudeste 6 Noroeste 0 925.9 -1.4 90
2019-11-01 03:00:00 9 4 Oeste 6 Noroeste 0 926.7 -0.6 86
2019-11-01 02:00:00 9.6 0 Calma 12 Norte 0 926.7 -0.8 78
2019-11-01 01:00:00 10.1 2 Sur 4 Este 0 927.3 -0.2 93
2019-11-01 00:00:00 10.6 2 Oeste 8 Noroeste 0 927.3 -0.1 83
2019-10-31 23:00:00 10.4 3 Oeste 6 Sudoeste 0 927.5 0.1 89
2019-10-31 22:00:00 10.9 3 Sudoeste 12 Norte 0 927.5 0.5 84
2019-10-31 21:00:00 10.9 3 Oeste 14 Noroeste 0 927.4 0.7 80
2019-10-31 20:00:00 11.2 9 Norte 14 Norte 0 927.4 1.2 85
2019-10-31 19:00:00 12.6 11 Norte 14 Norte 0 927 1.1 94
2019-10-31 18:00:00 13.8 3 Sudoeste 14 Sudoeste 2.2 926.7 1 89
2019-10-31 17:00:00 14.2 12 Norte 15 Noroeste 2 926.2 0.2 90
2019-10-31 16:00:00 15.1 9 Norte 21 Sur 1 925.9 -0.5 84
2019-10-31 15:00:00 20.6 13 Sur 20 Sur 0 925.7 -1.4 51
2019-10-31 14:00:00 17.9 8 Sur 14 Sur 0 926 -1.3 61
2019-10-31 13:00:00 18.5 8 Sur 12 Sur 0 926.4 -0.8 65
2019-10-31 12:00:00 15.7 3 Sur 9 Sur 0 927.1 0.3 74
2019-10-31 11:00:00 14.9 4 Sur 7 Sur 0 927.3 1 74
2019-10-31 10:00:00 13.8 4 Sudoeste 9 Sur 0 927.2 1.2 78
2019-10-31 09:00:00 12.2 3 Sudoeste 8 Norte 0 926.8 0.9 86
2019-10-31 08:00:00 11.7 6 Norte 7 Norte 0 926.3 0.2 86
2019-10-31 07:00:00 11.9 2 Oeste 7 Norte 0 926 -0.1 85
2019-10-31 06:00:00 11.3 3 Nordeste 5 Este 0 925.9 -0.6 88
2019-10-31 05:00:00 11.8 3 Oeste 5 Noroeste 0 926.1 -0.6 84
2019-10-31 04:00:00 12.2 3 Noroeste 6 Sur 0 926.1 -0.9 83
2019-10-31 03:00:00 12.1 3 Norte 6 Noroeste 0 926.5 -1 83
2019-10-31 02:00:00 12.6 5 Noroeste 8 Norte 0 926.7 -0.8 80
2019-10-31 01:00:00 12.6 2 Noroeste 10 Oeste 0 927 -0.3 79
2019-10-31 00:00:00 13.2 7 Oeste 10 Oeste 0 927.5 0.2 78
2019-10-30 23:00:00 13.1 3 Noroeste 8 Norte 0 927.5 0.5 77
2019-10-30 22:00:00 12.5 8 Norte 9 Norte 0 927.3 0.2 79
2019-10-30 21:00:00 14.1 4 Este 15 Noroeste 0 927.3 0.5 70
2019-10-30 20:00:00 15.1 14 Norte 19 Norte 0 927 0.4 71
2019-10-30 19:00:00 15 3 Este 14 Noroeste 0 927.1 0.6 62
2019-10-30 18:00:00 15.8 2 Noroeste 25 Sudoeste 0 926.8 0.2 59
2019-10-30 17:00:00 18.8 15 Sudoeste 35 Oeste 0 926.6 -0.4 50
2019-10-30 16:00:00 20.6 13 Sudoeste 27 Oeste 0 926.5 -1.2 44
2019-10-30 15:00:00 19.8 8 Sur 14 Sur 0 926.6 -1.9 55
2019-10-30 14:00:00 19 9 Sur 17 Sur 0 927 -1.7 53
2019-10-30 13:00:00 17.5 8 Sur 13 Sudeste 0 927.7 -1.1 58
2019-10-30 12:00:00 16.2 7 Sur 13 Sur 0 928.5 0.1 65
2019-10-30 11:00:00 15.5 5 Sudoeste 10 Sur 0 928.7 0.7 67
2019-10-30 10:00:00 14.2 4 Sur 8 Sur 0 928.8 1.1 71
2019-10-30 09:00:00 12.1 3 Sudoeste 5 Nordeste 0 928.4 0.8 78
2019-10-30 08:00:00 9.5 0 Calma 6 Norte 0 928 0.6 87
2019-10-30 07:00:00 9.5 0 Calma 5 Norte 0 927.7 0.3 86
2019-10-30 06:00:00 9 2 Noroeste 5 Norte 0 927.6 0 86
2019-10-30 05:00:00 10.2 2 Sudoeste 5 Sur 0 927.4 0.1 86
2019-10-30 04:00:00 10.7 0 Calma 6 Oeste 0 927.4 0 87
2019-10-30 03:00:00 10.9 0 Calma 5 Sudoeste 0 927.6 0.3 85
2019-10-30 02:00:00 10.7 2 Norte 5 Norte 0 927.3 0.2 87
2019-10-30 01:00:00 12.3 0 Calma 4 Sudoeste 0 927.4 0.4 79
2019-10-30 00:00:00 11.6 4 Norte 5 Norte 0 927.3 0.7 80
2019-10-29 23:00:00 12.2 2 Oeste 8 Norte 0 927.1 1 76
2019-10-29 22:00:00 12.9 5 Sudoeste 10 Noroeste 0 927 1.5 76
2019-10-29 21:00:00 13.1 3 Noroeste 5 Norte 0 926.6 1.5 73
2019-10-29 20:00:00 15 0 Calma 11 Norte 0 926.1 1.5 65
2019-10-29 19:00:00 13.7 6 Norte 8 Norte 0 925.5 1.1 70
2019-10-29 18:00:00 14.5 6 Norte 7 Norte 0 925.1 0.8 68
2019-10-29 17:00:00 18.6 3 Sur 8 Sur 0 924.6 0.2 51
2019-10-29 16:00:00 19.2 5 Sur 11 Sur 0 924.4 -0.5 52
2019-10-29 15:00:00 18.8 6 Sur 12 Sur 0 924.3 -1 54
2019-10-29 14:00:00 18.5 6 Sur 12 Sudoeste 0 924.4 -1 59
2019-10-29 13:00:00 16.2 6 Sur -- -- -- 924.9 -0.4 69
2019-10-29 12:00:00 -- 4 Sur 8 Sudoeste 0 925.3 0.3 --
2019-10-29 11:00:00 -- 4 Sur 9 Sudoeste 0 925.4 0.9 --
2019-10-29 10:00:00 -- 4 Sudoeste 7 Sudoeste 0 925.3 1.4 --
2019-10-29 09:00:00 -- 0 Calma 5 Sur 0 925 1.3 --
2019-10-29 08:00:00 -- -- -- -- -- -- -- -- --
2019-10-29 07:00:00 -- -- -- -- -- -- -- -- --
2019-10-29 06:00:00 -- -- -- -- -- -- -- -- --
2019-10-29 05:00:00 -- -- -- -- -- -- -- -- --
2019-10-29 04:00:00 -- -- -- -- -- -- -- -- --
2019-10-29 03:00:00 -- -- -- -- -- -- -- -- --
2019-10-29 02:00:00 -- -- -- -- -- -- -- -- --
2019-10-29 01:00:00 -- -- -- -- -- -- -- -- --
2019-10-29 00:00:00 -- -- -- -- -- -- -- -- --
2019-10-28 23:00:00 -- -- -- -- -- -- -- -- --
2019-10-28 22:00:00 -- -- -- -- -- -- -- -- --
2019-10-28 21:00:00 -- -- -- -- -- -- -- -- --
2019-10-28 20:00:00 -- -- -- -- -- -- -- -- --
2019-10-28 19:00:00 -- -- -- -- -- -- -- -- --
2019-10-28 18:00:00 -- -- -- -- -- -- -- -- --
2019-10-28 17:00:00 -- -- -- -- -- -- -- -- --
2019-10-28 16:00:00 -- -- -- -- -- -- -- -- --
2019-10-28 15:00:00 -- -- -- -- -- -- -- -- --
2019-10-28 14:00:00 -- -- -- -- -- -- -- -- --
2019-10-28 13:00:00 -- -- -- -- -- -- -- -- --
2019-10-28 12:00:00 -- -- -- -- -- -- -- -- --
2019-10-28 11:00:00 -- -- -- -- -- -- -- -- --
2019-10-28 10:00:00 -- -- -- -- -- -- -- -- --
2019-10-28 09:00:00 -- -- -- -- -- -- -- -- --
2019-10-28 08:00:00 -- -- -- -- -- -- -- -- --
2019-10-28 07:00:00 -- -- -- -- -- -- -- -- --
2019-10-28 06:00:00 -- -- -- -- -- -- -- -- --
2019-10-28 05:00:00 -- -- -- -- -- -- -- -- --
2019-10-28 04:00:00 -- -- -- -- -- -- -- -- --
2019-10-28 03:00:00 -- -- -- -- -- -- -- -- --
2019-10-28 02:00:00 -- -- -- -- -- -- -- -- --
2019-10-28 01:00:00 -- -- -- -- -- -- -- -- --
2019-10-28 00:00:00 -- -- -- -- -- -- -- -- --
2019-10-27 23:00:00 -- -- -- -- -- -- -- -- --
2019-10-27 22:00:00 -- -- -- -- -- -- -- -- --
2019-10-27 21:00:00 -- -- -- -- -- -- -- -- --
2019-10-27 20:00:00 -- -- -- -- -- -- -- -- --
2019-10-27 19:00:00 -- -- -- -- -- -- -- -- --
2019-10-27 18:00:00 -- -- -- -- -- -- -- -- --
2019-10-27 17:00:00 -- -- -- -- -- -- -- -- --
2019-10-27 16:00:00 -- -- -- -- -- -- -- -- --
2019-10-27 15:00:00 -- -- -- -- -- -- -- -- --
2019-10-27 14:00:00 -- -- -- -- -- -- -- -- --
2019-10-27 13:00:00 -- -- -- -- -- -- -- -- --
2019-10-27 12:00:00 -- -- -- -- -- -- -- -- --
2019-10-27 11:00:00 -- -- -- -- -- -- -- -- --
2019-10-27 10:00:00 -- -- -- -- -- -- -- -- --
2019-10-27 09:00:00 -- -- -- -- -- -- -- -- --
2019-10-27 08:00:00 -- -- -- -- -- -- -- -- --
2019-10-27 07:00:00 -- -- -- -- -- -- -- -- --
2019-10-27 06:00:00 -- -- -- -- -- -- -- -- --
2019-10-27 05:00:00 -- -- -- -- -- -- -- -- --
2019-10-27 04:00:00 -- -- -- -- -- -- -- -- --
2019-10-27 03:00:00 -- -- -- -- -- -- -- -- --
2019-10-27 02:00:00 -- -- -- -- -- -- -- -- --
2019-10-27 01:00:00 -- -- -- -- -- -- -- -- --
2019-10-27 00:00:00 -- -- -- -- -- -- -- -- --
2019-10-26 23:00:00 -- -- -- -- -- -- -- -- --
2019-10-26 22:00:00 -- -- -- -- -- -- -- -- --
2019-10-26 21:00:00 -- -- -- -- -- -- -- -- --
2019-10-26 20:00:00 -- -- -- -- -- -- -- -- --
2019-10-26 19:00:00 -- -- -- -- -- -- -- -- --
2019-10-26 18:00:00 -- -- -- -- -- -- -- -- --
2019-10-26 17:00:00 -- -- -- -- -- -- -- -- --
2019-10-26 16:00:00 -- -- -- -- -- -- -- -- --
2019-10-26 15:00:00 -- -- -- -- -- -- -- -- --
2019-10-26 14:00:00 -- -- -- -- -- -- -- -- --
2019-10-26 13:00:00 -- -- -- -- -- -- -- -- --
2019-10-26 12:00:00 -- -- -- -- -- -- -- -- --
2019-10-26 11:00:00 -- -- -- -- -- -- -- -- --
2019-10-26 10:00:00 -- -- -- -- -- -- -- -- --
2019-10-26 09:00:00 -- -- -- -- -- -- -- -- --
2019-10-26 08:00:00 -- -- -- -- -- -- -- -- --
2019-10-26 07:00:00 -- -- -- -- -- -- -- -- --
2019-10-26 06:00:00 -- -- -- -- -- -- -- -- --
2019-10-26 05:00:00 -- -- -- -- -- -- -- -- --
2019-10-26 04:00:00 -- -- -- -- -- -- -- -- --
2019-10-26 03:00:00 -- -- -- -- -- -- -- -- --
2019-10-26 02:00:00 -- -- -- -- -- -- -- -- --
2019-10-26 01:00:00 -- -- -- -- -- -- -- -- --
2019-10-26 00:00:00 -- -- -- -- -- -- -- -- --
2019-10-25 23:00:00 -- -- -- -- -- -- -- -- --
2019-10-25 22:00:00 -- -- -- -- -- -- -- -- --
2019-10-25 21:00:00 -- -- -- -- -- -- -- -- --
2019-10-25 20:00:00 -- -- -- -- -- -- -- -- --
2019-10-25 19:00:00 -- -- -- -- -- -- -- -- --
2019-10-25 18:00:00 -- -- -- -- -- -- -- -- --
2019-10-25 17:00:00 -- -- -- -- -- -- -- -- --
2019-10-25 16:00:00 -- -- -- -- -- -- -- -- --
2019-10-25 15:00:00 -- -- -- -- -- -- -- -- --
2019-10-25 14:00:00 -- -- -- -- -- -- -- -- --
2019-10-25 13:00:00 -- -- -- -- -- -- -- -- --
2019-10-25 12:00:00 -- -- -- -- -- -- -- -- --
2019-10-25 11:00:00 -- -- -- -- -- -- -- -- --
2019-10-25 10:00:00 -- -- -- -- -- -- -- -- --
2019-10-25 09:00:00 -- -- -- -- -- -- -- -- --
2019-10-25 08:00:00 -- -- -- -- -- -- -- -- --
2019-10-25 07:00:00 -- -- -- -- -- -- -- -- --
2019-10-25 06:00:00 -- -- -- -- -- -- -- -- --
2019-10-25 05:00:00 -- -- -- -- -- -- -- -- --
2019-10-25 04:00:00 -- -- -- -- -- -- -- -- --
2019-10-25 03:00:00 -- -- -- -- -- -- -- -- --
2019-10-25 02:00:00 -- -- -- -- -- -- -- -- --
2019-10-25 01:00:00 -- -- -- -- -- -- -- -- --
2019-10-25 00:00:00 -- -- -- -- -- -- -- -- --
2019-10-24 23:00:00 -- -- -- -- -- -- -- -- --
2019-10-24 22:00:00 -- -- -- -- -- -- -- -- --
2019-10-24 21:00:00 -- -- -- -- -- -- -- -- --
2019-10-24 20:00:00 -- -- -- -- -- -- -- -- --
2019-10-24 19:00:00 -- -- -- -- -- -- -- -- --
2019-10-24 18:00:00 -- -- -- -- -- -- -- -- --
2019-10-24 17:00:00 -- -- -- -- -- -- -- -- --
2019-10-24 16:00:00 -- -- -- -- -- -- -- -- --
2019-10-24 15:00:00 -- -- -- -- -- -- -- -- --
2019-10-24 14:00:00 -- -- -- -- -- -- -- -- --
2019-10-24 13:00:00 -- -- -- -- -- -- -- -- --
2019-10-24 12:00:00 -- -- -- -- -- -- -- -- --
2019-10-24 11:00:00 -- -- -- -- -- -- -- -- --
2019-10-24 10:00:00 -- -- -- -- -- -- -- -- --
2019-10-24 09:00:00 -- -- -- -- -- -- -- -- --
2019-10-24 08:00:00 -- -- -- -- -- -- -- -- --
2019-10-24 07:00:00 -- -- -- -- -- -- -- -- --
2019-10-24 06:00:00 -- -- -- -- -- -- -- -- --
2019-10-24 05:00:00 -- -- -- -- -- -- -- -- --
2019-10-24 04:00:00 -- -- -- -- -- -- -- -- --
2019-10-24 03:00:00 -- -- -- -- -- -- -- -- --
2019-10-24 02:00:00 -- -- -- -- -- -- -- -- --
2019-10-24 01:00:00 -- -- -- -- -- -- -- -- --
2019-10-24 00:00:00 -- -- -- -- -- -- -- -- --
2019-10-23 23:00:00 -- -- -- -- -- -- -- -- --
2019-10-23 22:00:00 -- -- -- -- -- -- -- -- --
2019-10-23 21:00:00 -- -- -- -- -- -- -- -- --
2019-10-23 20:00:00 -- -- -- -- -- -- -- -- --
2019-10-23 19:00:00 -- -- -- -- -- -- -- -- --
2019-10-23 18:00:00 -- -- -- -- -- -- -- -- --
2019-10-23 17:00:00 -- -- -- -- -- -- -- -- --
2019-10-23 16:00:00 -- -- -- -- -- -- -- -- --
2019-10-23 15:00:00 -- -- -- -- -- -- -- -- --
2019-10-23 14:00:00 -- -- -- -- -- -- -- -- --
2019-10-23 13:00:00 -- -- -- -- -- -- -- -- --
2019-10-23 12:00:00 -- -- -- -- -- -- -- -- --
2019-10-23 11:00:00 -- -- -- -- -- -- -- -- --
2019-10-23 10:00:00 -- -- -- -- -- -- -- -- --
2019-10-23 09:00:00 -- -- -- -- -- -- -- -- --
2019-10-23 08:00:00 11.4 7 Nordeste 22 Norte 0 913.6 1.4 74
2019-10-23 07:00:00 9 5 Nordeste 21 Nordeste 0 913.1 -2.7 88
2019-10-23 06:00:00 10.7 6 Sur 50 Sur 0 912.5 -4.5 75
2019-10-23 05:00:00 10.5 27 Nordeste 65 Norte 1.4 912.2 -5.2 72
2019-10-23 04:00:00 8.9 14 Noroeste 32 Norte 6.4 915.8 -2.5 90
2019-10-23 03:00:00 9.2 20 Noroeste 32 Noroeste 12 917 -1.3 91
2019-10-23 02:00:00 10.3 7 Este 23 Norte 6.2 917.4 -1.9 90
2019-10-23 01:00:00 10.9 8 Este 19 Norte 7.4 918.3 2.1 98
2019-10-23 00:00:00 11.4 14 Noroeste 25 Noroeste 6.8 918.3 3 95
2019-10-22 23:00:00 11.4 13 Norte 30 Norte 11.4 919.3 1.5 99
2019-10-22 22:00:00 11.4 21 Norte 36 Sur 24.2 916.2 1.2 98
2019-10-22 21:00:00 12.6 16 Noroeste 27 Norte 7.4 915.3 0 96
2019-10-22 20:00:00 11.6 10 Norte 81 Sudoeste 12.8 917.8 0.8 98
2019-10-22 19:00:00 15.5 22 Este 37 Este 0.4 915 -2.4 80
2019-10-22 18:00:00 14 14 Nordeste 26 Nordeste 0 915.3 -1.6 90
2019-10-22 17:00:00 12.8 3 Sudoeste 21 Norte 2 917 -0.9 99
2019-10-22 16:00:00 11.5 5 Sudoeste 19 Noroeste 1.4 917.4 -1.6 97
2019-10-22 15:00:00 9.4 4 Noroeste 17 Sur 3.6 916.9 -2.9 99
2019-10-22 14:00:00 9.3 4 Oeste 16 Sur 1.4 917.9 -3.3 99
2019-10-22 13:00:00 8.6 10 Sur 28 Noroeste 1.6 919 -3 99
2019-10-22 12:00:00 8.1 6 Sudoeste 15 Sur 1.2 919.8 -3.6 97
2019-10-22 11:00:00 8 9 Sur 15 Noroeste 0.2 921.2 -2 96
2019-10-22 10:00:00 7.9 7 Sudoeste 19 Norte 0.6 922 -1.6 94
2019-10-22 09:00:00 7.6 3 Sur 11 Norte 1.4 923.4 -1.3 93
2019-10-22 08:00:00 7.7 3 Sudoeste 8 Sudoeste 0.2 923.2 -1.6 88
2019-10-22 07:00:00 7.6 0 Calma 6 Nordeste 0 923.6 -1.5 86
2019-10-22 06:00:00 7.5 4 Noroeste 8 Sudoeste 0 924.7 -0.9 88
2019-10-22 05:00:00 7.7 5 Sur 9 Norte 0 924.8 -1.2 85
2019-10-22 04:00:00 7.3 6 Nordeste 15 Oeste 0 925.1 -1.8 88
2019-10-22 03:00:00 8 6 Sudoeste 11 Sudeste 0 925.6 -0.7 84
2019-10-22 02:00:00 8.5 12 Norte 21 Norte 0 926 -0.3 80
2019-10-22 01:00:00 7.8 4 Este 10 Sudeste 0 926.9 0.5 86
2019-10-22 00:00:00 8.9 5 Sur 13 Noroeste 0 926.3 0.3 81
2019-10-21 23:00:00 9.4 12 Norte 15 Norte 0 926.3 0.4 76
2019-10-21 22:00:00 8.8 7 Norte 10 Norte 0 926.4 1.1 79
2019-10-21 21:00:00 8.9 6 Norte 10 Norte 0 926 1.1 77
2019-10-21 20:00:00 9.7 7 Norte 10 Norte 0 925.9 1.1 75
2019-10-21 19:00:00 10 5 Noroeste 8 Sudoeste 0 925.3 0.6 76
2019-10-21 18:00:00 12.3 5 Oeste 14 Sur 0 924.9 0.3 67
2019-10-21 17:00:00 14.8 8 Sur 16 Sudoeste 0 924.8 -0.3 62
2019-10-21 16:00:00 15.5 11 Sur 18 Sur 0 924.7 -0.9 58
2019-10-21 15:00:00 15.1 8 Sur 16 Sur 0 924.6 -1 60
2019-10-21 14:00:00 12.3 3 Sudeste 12 Noroeste 0 925.1 0.1 85
2019-10-21 13:00:00 9.1 5 Sur 9 Sur 0 925.6 1.1 97
2019-10-21 12:00:00 8.7 2 Norte 10 Sur 0 925.6 1.8 97
2019-10-21 11:00:00 8.7 2 Oeste 8 Sur 0 925 1.7 98
2019-10-21 10:00:00 7.1 4 Sudoeste 7 Sur 0 924.5 1.6 96
2019-10-21 09:00:00 6.5 0 Calma 7 Norte 0 923.8 1.2 96
2019-10-21 08:00:00 5.9 7 Norte 9 Norte 0 923.3 0.6 96
2019-10-21 07:00:00 6.2 3 Sur 5 Sur 0 922.9 0.4 95
2019-10-21 06:00:00 7.3 0 Calma 6 Norte 0 922.6 0.2 95
2019-10-21 05:00:00 8.2 2 Noroeste 9 Noroeste 0 922.7 0.4 93
2019-10-21 04:00:00 7.7 4 Noroeste 7 Sur 0 922.5 0.7 94
2019-10-21 03:00:00 8 7 Noroeste 10 Norte 0 922.4 0.9 97
2019-10-21 02:00:00 8.5 4 Sudoeste 8 Norte 0 922.3 1.4 96
2019-10-21 01:00:00 8.8 5 Norte 7 Este 0 921.8 1.6 95
2019-10-21 00:00:00 9.2 3 Nordeste 10 Sudeste 0 921.5 2 94
2019-10-20 23:00:00 9.2 6 Noroeste 12 Oeste 0 920.9 2 91
2019-10-20 22:00:00 8.1 3 Noroeste 13 Noroeste 0 920.2 2.1 87
2019-10-20 21:00:00 8.8 9 Noroeste 14 Noroeste 0 919.5 2.5 86
2019-10-20 20:00:00 9.5 8 Noroeste 10 Noroeste 0 918.9 1.7 87
2019-10-20 19:00:00 11.9 5 Sudoeste 7 Sudoeste 0 918.1 1.4 82
2019-10-20 18:00:00 12.2 3 Noroeste 10 Sur 0 917 0.9 84
2019-10-20 17:00:00 12.5 6 Sur 19 Sudeste 0 917.2 1.5 90
2019-10-20 16:00:00 12.9 11 Sur 15 Sur 0 916.7 0.3 92
2019-10-20 15:00:00 12.5 5 Sudeste 17 Sudoeste 0.2 916.1 0.2 95
2019-10-20 14:00:00 12.7 8 Este 15 Sudoeste 0.2 915.7 0.3 94
2019-10-20 13:00:00 12.5 13 Sudoeste 22 Sudoeste 0.6 916.4 1.7 88
2019-10-20 12:00:00 13.2 15 Oeste 30 Sudoeste 0.2 915.9 1.7 81
2019-10-20 11:00:00 14.2 10 Sudoeste 16 Sudoeste 0.2 915.4 1.8 94
2019-10-20 10:00:00 14.2 7 Sudeste 14 Sudeste 1.6 914.7 1.1 95
2019-10-20 09:00:00 14 2 Este 13 Oeste 0.2 914.2 0.3 93
2019-10-20 08:00:00 14 3 Oeste 8 Nordeste 0 913.6 -0.3 94
2019-10-20 07:00:00 13.7 6 Norte 11 Noroeste 0.2 913.6 -0.7 95
2019-10-20 06:00:00 13.7 3 Este 10 Norte 0.2 913.9 -1.4 95
2019-10-20 05:00:00 14.2 4 Sudoeste 12 Sur 4.6 913.9 -1.8 92
2019-10-20 04:00:00 15.1 5 Sur 11 Sur 0 914.3 -1.6 79
2019-10-20 03:00:00 14.8 4 Noroeste 12 Sudeste 0 915.3 -0.8 80
2019-10-20 02:00:00 14.9 8 Este 18 Este 0 915.7 -0.3 79
2019-10-20 01:00:00 15.1 6 Nordeste 15 Este 0 915.9 0 77
2019-10-20 00:00:00 14 4 Nordeste 12 Norte 0 916.1 0.1 74
2019-10-19 23:00:00 14.6 6 Norte 15 Este 0 916 0.1 67
2019-10-19 22:00:00 15.5 8 Norte 14 Norte 0 915.9 0.1 56
2019-10-19 21:00:00 16 0 Calma 7 Sur 0 916 0.2 52
2019-10-19 20:00:00 15.6 8 Noroeste 10 Noroeste 0 915.9 -0.3 54
2019-10-19 19:00:00 18 6 Sur 17 Sur 0 915.8 -0.5 44
2019-10-19 18:00:00 20.3 6 Sudoeste 24 Sudoeste 0 915.8 -0.8 37
2019-10-19 17:00:00 20.8 19 Sudoeste 31 Sudoeste 0 916.2 -0.9 33
2019-10-19 16:00:00 19.8 21 Sur 36 Sur 0 916.3 -1.8 44
2019-10-19 15:00:00 20.4 14 Sur 25 Sur 0 916.6 -2 46
2019-10-19 14:00:00 21.1 15 Sur 25 Sur 0 917.1 -1.6 45
2019-10-19 13:00:00 19.8 12 Sur 18 Sudeste 0 918.1 -0.9 54
2019-10-19 12:00:00 18.2 7 Sur 15 Sur 0 918.6 -0.5 61
2019-10-19 11:00:00 15.7 4 Noroeste 17 Sur 0 918.7 0 69
2019-10-19 10:00:00 12.8 4 Norte 9 Sur 0 919 0 85
2019-10-19 09:00:00 11.8 6 Norte 8 Norte 0 919.1 0 91
2019-10-19 08:00:00 11.5 4 Norte 9 Noroeste 0 918.7 -0.8 85
2019-10-19 07:00:00 10.6 4 Oeste 8 Norte 0 919 -0.9 84
2019-10-19 06:00:00 11.1 8 Norte 10 Norte 0 919.1 -1.4 86
2019-10-19 05:00:00 12.5 3 Sudoeste 9 Norte 0 919.5 -1.5 81
2019-10-19 04:00:00 13 6 Sudoeste 11 Noroeste 0 919.9 -1.5 79
2019-10-19 03:00:00 12.4 8 Norte 13 Noroeste 0 920.5 -1.3 79
2019-10-19 02:00:00 12.2 11 Norte 13 Noroeste 0 921 -0.9 79
2019-10-19 01:00:00 13.7 9 Norte 12 Norte 0 921.4 -0.6 74
2019-10-19 00:00:00 14.9 2 Sur 9 Noroeste 0 921.8 -0.2 71
2019-10-18 23:00:00 14.9 3 Sudeste 8 Oeste 0 921.9 -0.1 72
2019-10-18 22:00:00 14.1 8 Norte 12 Norte 0 922 0 73
2019-10-18 21:00:00 14.5 9 Norte 12 Norte 0 922 -0.1 71
2019-10-18 20:00:00 15.6 5 Norte 12 Oeste 0 922 -0.4 67
2019-10-18 19:00:00 17.4 4 Sudoeste 8 Sur 0 922 -0.6 59
2019-10-18 18:00:00 18.3 6 Sur 14 Sur 0 922.1 -0.8 56
2019-10-18 17:00:00 19.1 9 Sur 15 Sur 0 922.4 -1.2 52
2019-10-18 16:00:00 19.4 8 Sur 17 Sur 0 922.6 -1.7 51
2019-10-18 15:00:00 18.9 8 Sur 15 Sur 0 922.9 -1.8 53
2019-10-18 14:00:00 17.4 7 Sur 17 Sur 0 923.6 -1.1 56
2019-10-18 13:00:00 16 8 Sur 15 Sur 0 924.3 -0.3 61
2019-10-18 12:00:00 13.8 3 Sur 10 Sur 0 924.7 0.3 72
2019-10-18 11:00:00 12.6 3 Oeste 11 Norte 0 924.7 0.5 75
2019-10-18 10:00:00 10.3 3 Oeste 11 Sur 0 924.6 0.5 83
2019-10-18 09:00:00 10.3 4 Norte 8 Norte 0 924.4 0.3 88
2019-10-18 08:00:00 9.3 6 Oeste 10 Noroeste 0.2 924.2 -0.2 86
2019-10-18 07:00:00 9.3 3 Norte 8 Norte 0 924.1 -0.3 82
2019-10-18 06:00:00 10.3 3 Sur 7 Nordeste 0 924.1 -0.4 75
2019-10-18 05:00:00 10.2 2 Sudoeste 8 Nordeste 0 924.4 -0.4 73
2019-10-18 04:00:00 9.7 5 Nordeste 8 Nordeste 0 924.4 -0.7 74
2019-10-18 03:00:00 10.6 2 Sudeste 9 Norte 0 924.5 -0.7 70
2019-10-18 02:00:00 10.3 5 Nordeste 6 Nordeste 0 924.8 -0.3 70
2019-10-18 01:00:00 12.4 3 Oeste 6 Norte 0 925.1 0.2 62
2019-10-18 00:00:00 11.3 7 Norte 10 Noroeste 0 925.2 0.8 67